Terminal Aerodrome Forecast
Issued by NWS

Home | Current Version | Previous Version | Text Only | Print | Product List | Glossary On
Versions: 1 2 3 4 5 6 7 8 9 10 11 12 13 14 15 16 17 18
041
FTUS43 KPAH 251914 AAA
TAFCGI
TAF AMD
KCGI 251914Z 2519/2618 18006KT P6SM BKN100
      TEMPO 2521/2524 4SM SHRA BKN025
     FM260000 19009KT P6SM BKN050
     FM260900 19004KT 5SM BR BKN022
     FM261400 20010KT P6SM BKN040=

USA.gov is the U.S. government's official web portal to all federal, state and local government web resources and services.